createdAt,value
2023-05-16T00:09:05.472Z,11.44
2023-05-16T00:29:08.450Z,10.13
2023-05-16T00:49:11.102Z,10.22
2023-05-16T01:09:17.076Z,10.11
2023-05-16T01:29:19.816Z,9.75
2023-05-16T01:49:23.049Z,9.45
2023-05-16T02:09:27.356Z,9.41
2023-05-16T02:29:30.028Z,9.34
2023-05-16T02:49:32.732Z,9.05
2023-05-16T03:09:35.714Z,9.00
2023-05-16T03:29:38.523Z,9.09
2023-05-16T03:49:41.205Z,9.66
2023-05-16T04:09:43.857Z,11.12
2023-05-16T04:29:46.560Z,12.32
2023-05-16T04:49:49.232Z,14.02
2023-05-16T05:09:53.838Z,15.56
2023-05-16T05:29:56.566Z,16.01
2023-05-16T05:49:59.302Z,17.30
2023-05-16T06:10:05.771Z,17.49
2023-05-16T06:30:08.870Z,17.97
2023-05-16T06:50:12.689Z,17.24
2023-05-16T07:10:15.838Z,17.47
2023-05-16T07:30:18.738Z,16.99
2023-05-16T07:50:21.454Z,17.61
2023-05-16T08:10:25.857Z,18.94
2023-05-16T08:30:28.842Z,19.41
2023-05-16T08:50:31.666Z,19.83
2023-05-16T09:10:34.415Z,19.95
2023-05-16T09:30:37.098Z,20.88
2023-05-16T09:50:39.796Z,22.58
2023-05-16T10:10:42.657Z,21.65
2023-05-16T10:30:45.687Z,22.03
2023-05-16T10:50:48.741Z,23.56
2023-05-16T11:10:51.516Z,22.58
2023-05-16T11:30:56.459Z,24.29
2023-05-16T11:50:59.335Z,24.62
2023-05-16T12:11:02.347Z,24.71
2023-05-16T12:31:05.696Z,24.19
2023-05-16T12:51:10.504Z,25.21
2023-05-16T13:11:13.424Z,23.75
2023-05-16T13:31:16.279Z,23.95
2023-05-16T13:51:19.248Z,23.56
2023-05-16T14:11:26.879Z,22.29
2023-05-16T14:31:31.361Z,22.35
2023-05-16T14:51:34.593Z,21.14
2023-05-16T15:11:37.499Z,20.75
2023-05-16T15:31:40.396Z,19.80
2023-05-16T15:51:43.334Z,18.75
2023-05-16T16:11:46.372Z,18.11
2023-05-16T16:31:49.325Z,17.84
2023-05-16T16:51:52.577Z,17.71
2023-05-16T17:11:55.568Z,17.36
2023-05-16T17:31:58.505Z,17.01
2023-05-16T17:52:02.030Z,16.10
2023-05-16T18:12:04.821Z,15.76
2023-05-16T18:32:08.359Z,15.08
2023-05-16T18:52:11.373Z,14.58
2023-05-16T19:12:14.390Z,14.86
2023-05-16T19:32:17.779Z,14.25
2023-05-16T19:52:20.533Z,14.61
2023-05-16T20:12:23.422Z,14.29
2023-05-16T20:32:26.167Z,14.01
2023-05-16T20:52:29.294Z,13.62
2023-05-16T21:12:33.480Z,13.29
2023-05-16T21:32:36.362Z,12.97
2023-05-16T21:52:39.279Z,12.87
2023-05-16T22:12:42.748Z,12.62
2023-05-16T22:32:47.241Z,12.73
2023-05-16T22:52:50.089Z,12.58
2023-05-16T23:12:52.863Z,12.49
2023-05-16T23:32:55.850Z,12.36
2023-05-16T23:52:58.673Z,12.19
